»·PEaware :: N434EP KVNY-KSNA

N434EP :: KVNY-KSNA

FLIGHT INFORMATION

Flight Status: Arrived
Operator: Privately registered:
United States
More flights under this callsign
Pilot: William R. (21243)
Aircraft: CESSNA 172 SKYHAWK
(C172)
More flights by this aircraft type
Origin: KVNY Van Nuys
United States
Destination: KSNA John Wayne-Orange Co
United States
More flights between these airports :: More routes between these airports
Route: +
File this flight plan on PilotEdge
Remarks:
Altitude:
(Current/Filed)
0ft
Speed:
(Current/Filed)
0kts
Departed: 14-Mar-19 07:32 PM
Arrived: 14-Mar-19 08:49 PM
Distance/Time
Traveled:
45nm/1:17
Distance/Time
To Go:
Arrived

Flight Plot

Page will automatically refresh every two minutes.


Map Options




Map Legend


Flown Route
Filed Route
Departure Airport
Arrival Airport
Navaid (VOR, NDB)
Fix

Horizontal Profiles

Position Reports

Time Latitude Longitude Heading Altitude Ground
Speed
14-Mar-19 19:23 34.210340 -118.487162 271 806ft 0kts
14-Mar-19 19:23 34.210340 -118.487162 271 806ft 0kts
14-Mar-19 19:25 34.210340 -118.487162 271 806ft 0kts
14-Mar-19 19:26 34.210340 -118.487162 271 806ft 0kts
14-Mar-19 19:26 34.210340 -118.487162 271 806ft 0kts
14-Mar-19 19:27 34.210340 -118.487162 271 806ft 0kts
14-Mar-19 19:29 34.208383 -118.488267 189 806ft 12kts
14-Mar-19 19:29 34.208178 -118.488490 247 806ft 0kts
14-Mar-19 19:30 34.208063 -118.488836 51 806ft 4kts
14-Mar-19 19:31 34.219766 -118.488606 32 1427ft 65kts
14-Mar-19 19:32 34.198203 -118.476965 183 2320ft 97kts
14-Mar-19 19:33 34.173339 -118.480357 202 3439ft 91kts
14-Mar-19 19:34 34.149263 -118.489682 208 4444ft 91kts
14-Mar-19 19:35 34.119634 -118.499235 203 4896ft 123kts
14-Mar-19 19:36 34.090808 -118.514946 205 5405ft 127kts
14-Mar-19 19:37 34.051954 -118.504319 160 4668ft 150kts
14-Mar-19 19:42 34.196958 -118.490494 82 806ft 0kts
14-Mar-19 19:43 34.196958 -118.490494 82 806ft 0kts
14-Mar-19 19:44 34.196958 -118.490494 82 806ft 0kts
14-Mar-19 19:45 34.196958 -118.490494 82 806ft 0kts
14-Mar-19 19:46 34.196958 -118.490494 82 806ft 0kts
14-Mar-19 19:47 34.196958 -118.490494 82 806ft 0kts
14-Mar-19 19:48 34.196958 -118.490494 82 806ft 0kts
14-Mar-19 19:49 34.196958 -118.490494 82 806ft 0kts
14-Mar-19 19:50 34.196958 -118.490494 82 806ft 0kts
14-Mar-19 19:51 34.196958 -118.490494 82 806ft 0kts
14-Mar-19 19:52 34.196958 -118.490494 82 806ft 0kts
14-Mar-19 19:53 34.196958 -118.490494 82 806ft 0kts
14-Mar-19 19:54 34.196958 -118.490494 82 806ft 0kts
14-Mar-19 19:55 34.196958 -118.490494 82 806ft 0kts
14-Mar-19 19:56 34.196958 -118.490494 82 806ft 0kts
14-Mar-19 19:57 34.196958 -118.490494 82 806ft 0kts
14-Mar-19 19:58 34.196958 -118.490494 82 806ft 0kts
14-Mar-19 19:59 34.196958 -118.490494 82 806ft 0kts
14-Mar-19 20:00 34.197020 -118.489981 79 806ft 0kts
14-Mar-19 20:01 34.197020 -118.489981 79 806ft 0kts
14-Mar-19 20:02 34.200250 -118.489439 353 846ft 60kts
14-Mar-19 20:03 34.218411 -118.491776 318 1704ft 58kts
14-Mar-19 20:04 34.202805 -118.498239 175 2488ft 89kts
14-Mar-19 20:05 34.174655 -118.492436 178 2888ft 105kts
14-Mar-19 20:06 34.144340 -118.488829 184 2877ft 126kts
14-Mar-19 20:07 34.121851 -118.502798 296 2694ft 109kts
14-Mar-19 20:08 34.146576 -118.496141 81 2862ft 106kts
14-Mar-19 20:09 34.122131 -118.491844 220 3058ft 105kts
14-Mar-19 20:10 34.097492 -118.500675 269 3598ft 68kts
14-Mar-19 20:11 34.097786 -118.523914 267 4327ft 66kts
14-Mar-19 20:12 34.105167 -118.542652 278 5080ft 63kts
14-Mar-19 20:13 34.109094 -118.557716 184 5509ft 99kts
14-Mar-19 20:14 34.082219 -118.541718 150 5584ft 115kts
14-Mar-19 20:15 34.056887 -118.517605 146 5561ft 117kts
14-Mar-19 20:16 34.029809 -118.496377 153 5487ft 110kts
14-Mar-19 20:17 34.005419 -118.480446 154 5493ft 110kts
14-Mar-19 20:18 33.978233 -118.463056 152 5482ft 111kts
14-Mar-19 20:19 33.951165 -118.444769 150 5474ft 111kts
14-Mar-19 20:20 33.922994 -118.428635 161 5463ft 111kts
14-Mar-19 20:21 33.894258 -118.416426 164 5523ft 109kts
14-Mar-19 20:22 33.868535 -118.397385 126 5551ft 110kts
14-Mar-19 20:23 33.857037 -118.363423 102 5591ft 109kts
14-Mar-19 20:24 33.849835 -118.327981 100 5632ft 108kts
14-Mar-19 20:25 33.839852 -118.292824 110 5606ft 109kts
14-Mar-19 20:26 33.827267 -118.258706 113 5575ft 112kts
14-Mar-19 20:27 33.813664 -118.223989 114 5450ft 115kts
14-Mar-19 20:28 33.798204 -118.188507 120 4619ft 133kts
14-Mar-19 20:29 33.780206 -118.152989 124 3274ft 113kts
14-Mar-19 20:30 33.766366 -118.123391 120 3523ft 113kts
14-Mar-19 20:31 33.745552 -118.094452 134 3455ft 118kts
14-Mar-19 20:32 33.724773 -118.063598 132 3391ft 108kts
14-Mar-19 20:33 33.706212 -118.035254 137 3418ft 115kts
14-Mar-19 20:34 33.680713 -118.018868 160 3528ft 102kts
14-Mar-19 20:35 33.657015 -118.033753 298 3251ft 102kts
14-Mar-19 20:36 33.665559 -118.013410 80 3376ft 107kts
14-Mar-19 20:37 33.687927 -118.007780 285 3481ft 118kts
14-Mar-19 20:38 33.678267 -118.003749 39 3400ft 118kts
14-Mar-19 20:39 33.699257 -118.024770 320 3568ft 113kts
14-Mar-19 20:40 33.715938 -118.038872 86 3741ft 116kts
14-Mar-19 20:41 33.718382 -118.000067 86 3454ft 116kts
14-Mar-19 20:42 33.721170 -117.961870 91 3026ft 113kts
14-Mar-19 20:43 33.709504 -117.927916 106 2341ft 114kts
14-Mar-19 20:44 33.704186 -117.893954 110 1987ft 90kts
14-Mar-19 20:45 33.686515 -117.875591 196 1027ft 94kts
14-Mar-19 20:46 33.663752 -117.891217 201 867ft 88kts
14-Mar-19 20:47 33.659438 -117.881228 57 677ft 56kts
14-Mar-19 20:48 33.671434 -117.871424 30 60ft 28kts
14-Mar-19 20:49 33.674171 -117.870641 297 60ft 0kts

Navigation Log

Ident Type
Flight plan parsing failed, navigation log unavailable